Time;durP1;ratioP1;P1;durP2;ratioP2;P2;SDS_P1;SDS_P2;PMS_P1;PMS_P2;Temp;Humidity;BMP_temperature;BMP_pressure;BME280_temperature;BME280_humidity;BME280_pressure;Samples;Min_cycle;Max_cycle;Signal;HPM_P1;HPM_P2
2021/01/13 00:02:19;;;;;;;15.35;2.40;;;;;;;3.67;74.50;99565.59;6185878;23;20021;-87
2021/01/13 00:04:45;;;;;;;11.00;2.00;;;;;;;3.65;74.51;99563.88;6186126;23;20021;-83
2021/01/13 00:07:13;;;;;;;14.48;2.63;;;;;;;3.64;74.76;99556.13;6186586;23;20056;-87
2021/01/13 00:09:43;;;;;;;12.50;2.10;;;;;;;3.63;74.60;99560.47;6186162;23;20025;-83
2021/01/13 00:12:10;;;;;;;11.93;2.20;;;;;;;3.64;74.29;99557.00;6159960;23;20028;-88
2021/01/13 00:14:37;;;;;;;12.43;1.77;;;;;;;3.64;74.59;99562.19;6159746;23;20027;-86
2021/01/13 00:17:04;;;;;;;8.68;1.65;;;;;;;3.64;74.20;99571.75;6160322;23;20046;-87
2021/01/13 00:19:30;;;;;;;12.93;2.20;;;;;;;3.62;75.07;99556.16;6161524;23;20031;-84
2021/01/13 00:21:56;;;;;;;10.18;1.65;;;;;;;3.61;74.68;99564.88;6162013;23;20028;-88
2021/01/13 00:24:23;;;;;;;9.88;1.77;;;;;;;3.61;74.34;99557.06;6161118;23;20037;-86
2021/01/13 00:26:50;;;;;;;8.40;2.00;;;;;;;3.62;74.59;99563.97;6162082;23;20025;-84
2021/01/13 00:29:17;;;;;;;8.32;1.70;;;;;;;3.60;74.38;99563.19;6161805;23;20035;-83
2021/01/13 00:31:47;;;;;;;11.88;2.33;;;;;;;3.59;74.02;99564.06;6161696;23;20087;-86
2021/01/13 00:34:14;;;;;;;8.75;2.05;;;;;;;3.61;74.41;99571.81;6161551;23;20016;-86
2021/01/13 00:36:41;;;;;;;6.50;1.60;;;;;;;3.59;74.38;99558.84;6188200;23;20021;-83
2021/01/13 00:39:09;;;;;;;11.77;2.28;;;;;;;3.58;74.45;99567.56;6187885;23;20025;-87
2021/01/13 00:41:39;;;;;;;9.00;1.83;;;;;;;3.56;74.00;99564.19;6162062;23;20025;-87
2021/01/13 00:44:06;;;;;;;9.38;2.15;;;;;;;3.57;74.24;99565.00;6187965;23;20025;-83
2021/01/13 00:46:37;;;;;;;12.15;2.28;;;;;;;3.55;74.12;99556.41;6187856;23;20021;-83
2021/01/13 00:49:04;;;;;;;14.02;2.25;;;;;;;3.56;74.49;99558.13;6188528;23;20027;-84
2021/01/13 00:51:41;;;;;;;11.35;2.13;;;;;;;3.52;73.89;99566.00;6161634;23;20384;-86
2021/01/13 00:54:11;;;;;;;11.25;2.08;;;;;;;3.53;74.35;99556.47;6187323;23;20021;-86
2021/01/13 00:56:42;;;;;;;8.80;2.20;;;;;;;3.53;74.79;99556.47;6161404;23;20032;-87
2021/01/13 00:59:10;;;;;;;7.43;1.70;;;;;;;3.52;74.64;99568.59;6161707;23;20025;-87
2021/01/13 01:01:38;;;;;;;10.73;1.98;;;;;;;3.51;74.68;99563.44;6161565;23;20025;-87
2021/01/13 01:04:05;;;;;;;11.75;2.00;;;;;;;3.50;74.67;99556.53;6161116;23;20049;-83
2021/01/13 01:06:31;;;;;;;12.20;1.90;;;;;;;3.51;74.50;99561.72;6187903;23;20036;-83
2021/01/13 01:08:57;;;;;;;11.68;1.88;;;;;;;3.50;74.99;99562.63;6161442;23;20021;-87
2021/01/13 01:11:31;;;;;;;11.38;2.08;;;;;;;3.50;74.54;99566.97;6187827;23;20024;-83
2021/01/13 01:13:57;;;;;;;7.72;2.30;;;;;;;3.50;74.90;99562.63;6160992;23;20029;-83
2021/01/13 01:16:31;;;;;;;9.57;1.77;;;;;;;3.49;74.15;99563.53;6161344;23;20360;-84
2021/01/13 01:18:58;;;;;;;8.80;1.50;;;;;;;3.50;75.03;99565.22;6187642;23;20083;-84
2021/01/13 01:21:25;;;;;;;9.80;1.83;;;;;;;3.51;74.68;99569.53;6161006;23;20456;-86
2021/01/13 01:23:51;;;;;;;10.63;1.90;;;;;;;3.51;74.51;99564.31;6186916;23;20321;-86
2021/01/13 01:26:17;;;;;;;13.77;2.35;;;;;;;3.50;74.78;99560.00;6187880;23;20020;-87
2021/01/13 01:28:44;;;;;;;11.32;1.95;;;;;;;3.49;74.46;99563.53;6161497;23;20016;-87
2021/01/13 01:31:10;;;;;;;8.15;1.65;;;;;;;3.48;74.27;99561.78;6161329;23;20072;-86
2021/01/13 01:33:36;;;;;;;10.45;1.85;;;;;;;3.47;74.88;99570.50;6161071;23;20100;-86
2021/01/13 01:36:02;;;;;;;16.95;2.75;;;;;;;3.46;74.71;99563.59;6187002;23;20024;-83
2021/01/13 01:38:29;;;;;;;9.90;1.92;;;;;;;3.45;74.62;99561.03;6187519;23;20025;-83
2021/01/13 01:41:06;;;;;;;13.00;2.42;;;;;;;3.41;74.11;99560.31;6161346;23;20033;-83
2021/01/13 01:43:32;;;;;;;11.93;1.50;;;;;;;3.44;74.31;99569.75;6186844;23;20021;-85
2021/01/13 01:46:03;;;;;;;10.02;1.92;;;;;;;3.43;74.50;99568.06;6187200;23;20021;-87
2021/01/13 01:48:36;;;;;;;11.52;1.55;;;;;;;3.40;74.40;99566.38;6160731;23;20025;-87
2021/01/13 01:51:03;;;;;;;8.05;2.10;;;;;;;3.42;74.67;99566.34;6161102;23;20086;-83
2021/01/13 01:53:33;;;;;;;13.20;2.25;;;;;;;3.38;74.09;99566.44;6161233;23;20028;-83
2021/01/13 01:56:17;;;;;;;12.88;2.22;;;;;;;3.37;74.10;99567.31;6161017;23;20467;-83
2021/01/13 01:58:49;;;;;;;10.88;1.77;;;;;;;3.38;73.98;99566.44;6160882;23;20025;-83
2021/01/13 02:01:30;;;;;;;13.93;2.00;;;;;;;3.37;73.82;99562.13;6161353;23;20079;-85
2021/01/13 02:04:06;;;;;;;11.05;2.33;;;;;;;3.37;74.15;99558.69;6160340;23;20534;-86
2021/01/13 02:06:38;;;;;;;12.85;1.70;;;;;;;3.38;74.48;99569.06;6187685;23;20028;-83
2021/01/13 02:09:04;;;;;;;7.32;1.38;;;;;;;3.37;74.54;99571.69;6161398;23;20448;-85
2021/01/13 02:11:37;;;;;;;11.27;1.52;;;;;;;3.37;74.35;99558.69;6161448;23;20029;-83
2021/01/13 02:14:03;;;;;;;;;;;;;;;3.38;73.44;99555.19;6159005;23;20021;-80
2021/01/13 02:16:31;;;;;;;9.65;2.00;;;;;;;3.39;74.60;99569.88;6156473;23;19963;-81
2021/01/13 02:19:00;;;;;;;9.13;1.88;;;;;;;3.39;74.54;99559.47;6131407;23;20026;-82
2021/01/13 02:21:31;;;;;;;10.27;1.88;;;;;;;3.38;74.90;99560.38;6156884;23;20092;-81
2021/01/13 02:24:35;;;;;;;9.27;1.90;;;;;;;3.36;73.87;99564.78;6154636;23;20040;-81
2021/01/13 02:27:22;;;;;;;10.32;1.70;;;;;;;3.38;74.77;99565.59;6156383;23;20025;-81
2021/01/13 02:29:56;;;;;;;10.88;1.63;;;;;;;3.39;74.31;99564.69;6156381;23;20483;-82
2021/01/13 02:32:29;;;;;;;6.93;1.48;;;;;;;3.40;74.52;99571.59;6156039;23;20025;-82
2021/01/13 02:35:08;;;;;;;8.82;1.58;;;;;;;3.39;74.40;99560.34;6130492;23;20092;-81
2021/01/13 02:37:42;;;;;;;14.88;2.03;;;;;;;3.41;74.82;99559.44;6156684;23;20025;-81
2021/01/13 02:40:15;;;;;;;14.15;2.15;;;;;;;3.39;73.99;99569.88;6130100;23;20396;-81
2021/01/13 02:42:57;;;;;;;10.98;1.52;;;;;;;3.40;74.27;99568.97;6156036;23;20041;-82
2021/01/13 02:45:25;;;;;;;9.93;2.03;;;;;;;3.43;74.65;99568.91;6156534;23;20072;-81
2021/01/13 02:47:57;;;;;;;8.80;1.60;;;;;;;3.44;74.11;99577.56;6156499;23;20029;-82
2021/01/13 02:50:29;;;;;;;8.10;1.37;;;;;;;3.45;74.85;99572.31;6156081;23;20482;-82
2021/01/13 02:53:31;;;;;;;8.80;1.75;;;;;;;3.45;74.11;99574.94;6156205;23;20245;-81
2021/01/13 02:55:57;;;;;;;11.10;2.05;;;;;;;3.51;74.67;99574.72;6155672;23;20021;-82
2021/01/13 02:58:33;;;;;;;9.80;1.52;;;;;;;3.50;74.19;99570.44;6156116;23;20064;-81
2021/01/13 03:01:04;;;;;;;12.35;2.60;;;;;;;3.54;74.73;99572.94;6156460;23;20025;-81
2021/01/13 03:03:35;;;;;;;15.05;2.42;;;;;;;3.54;74.71;99570.34;6156255;23;20021;-81
2021/01/13 03:06:09;;;;;;;12.15;2.28;;;;;;;3.55;74.33;99587.66;6155845;23;20461;-82
2021/01/13 03:08:55;;;;;;;14.82;1.88;;;;;;;3.56;74.59;99579.78;6130537;23;20021;-82
2021/01/13 03:11:21;;;;;;;8.60;1.50;;;;;;;3.61;75.15;99584.84;6156517;23;20029;-81
2021/01/13 03:13:55;;;;;;;9.93;1.90;;;;;;;3.63;75.08;99583.91;6156017;23;20029;-82
2021/01/13 03:16:21;;;;;;;16.15;1.90;;;;;;;3.63;74.92;99589.09;6156200;23;20018;-82
2021/01/13 03:19:07;;;;;;;9.82;1.90;;;;;;;3.61;74.12;99588.31;6155812;23;20026;-82
2021/01/13 03:21:46;;;;;;;10.60;1.90;;;;;;;3.62;73.64;99576.13;6156285;23;20033;-82
2021/01/13 03:24:18;;;;;;;8.00;1.70;;;;;;;3.64;74.53;99575.22;6155951;23;20388;-81
2021/01/13 03:26:48;;;;;;;11.47;1.70;;;;;;;3.63;73.81;99578.69;6155949;23;20034;-82
2021/01/13 03:29:19;;;;;;;8.55;1.90;;;;;;;3.62;73.68;99561.38;6156151;23;20037;-81
2021/01/13 03:32:06;;;;;;;8.50;1.52;;;;;;;3.59;73.20;99574.47;6156346;23;20022;-82
2021/01/13 03:34:40;;;;;;;14.00;2.05;;;;;;;3.65;74.60;99569.09;6155666;23;20460;-82
2021/01/13 03:37:22;;;;;;;9.00;2.17;;;;;;;3.63;74.20;99567.44;6156254;23;20080;-82
2021/01/13 03:39:51;;;;;;;14.63;2.45;;;;;;;3.65;74.56;99573.44;6156271;23;20026;-81
2021/01/13 03:42:20;;;;;;;6.78;1.70;;;;;;;3.65;74.89;99576.03;6155409;23;20025;-82
2021/01/13 03:44:47;;;;;;;10.30;2.30;;;;;;;3.67;74.98;99570.78;6154610;23;20017;-81
2021/01/13 03:47:16;;;;;;;9.25;2.03;;;;;;;3.66;74.53;99569.94;6155314;23;20021;-81
2021/01/13 03:49:51;;;;;;;9.13;2.42;;;;;;;3.66;74.35;99569.94;6156150;23;20092;-81
2021/01/13 03:52:18;;;;;;;20.45;2.75;;;;;;;3.69;74.84;99577.66;6156231;23;20025;-83
2021/01/13 03:54:44;;;;;;;12.32;2.10;;;;;;;3.72;75.12;99574.09;6157539;23;20469;-81
2021/01/13 03:57:10;;;;;;;9.80;1.98;;;;;;;3.73;74.82;99560.16;6158007;23;20029;-81
2021/01/13 03:59:55;;;;;;;12.43;2.40;;;;;;;3.71;74.06;99568.06;6132229;23;20025;-81
2021/01/13 04:02:28;;;;;;;10.15;2.08;;;;;;;3.74;74.68;99562.72;6157754;23;20022;-82
2021/01/13 04:04:57;;;;;;;9.43;2.63;;;;;;;3.78;74.74;99553.09;6157626;23;20073;-82
2021/01/13 04:07:24;;;;;;;9.35;1.98;;;;;;;3.81;74.80;99562.56;6132147;23;20387;-81
2021/01/13 04:09:55;;;;;;;13.93;1.90;;;;;;;3.81;74.74;99572.97;6158053;23;20088;-82
2021/01/13 04:12:25;;;;;;;9.32;1.50;;;;;;;3.83;74.41;99571.16;6157848;23;20021;-82
2021/01/13 04:14:56;;;;;;;11.88;2.88;;;;;;;3.83;74.34;99556.38;6131377;23;20075;-82
2021/01/13 04:17:27;;;;;;;10.55;2.25;;;;;;;3.86;75.27;99561.50;6157861;23;20022;-81
2021/01/13 04:19:54;;;;;;;11.80;1.67;;;;;;;3.88;75.14;99558.81;6157597;23;20456;-82
2021/01/13 04:22:25;;;;;;;13.93;3.33;;;;;;;3.89;74.78;99560.56;6158032;23;20052;-82
2021/01/13 04:24:54;;;;;;;11.43;2.00;;;;;;;3.91;75.02;99558.75;6132150;23;20448;-83
2021/01/13 04:27:21;;;;;;;7.63;1.70;;;;;;;3.93;75.21;99556.09;6157795;23;20076;-82
2021/01/13 04:29:47;;;;;;;9.27;1.67;;;;;;;3.95;75.20;99543.84;6157693;23;20068;-81
2021/01/13 04:32:14;;;;;;;8.75;1.83;;;;;;;3.96;75.00;99546.41;6157488;23;20025;-82
2021/01/13 04:34:41;;;;;;;16.27;2.20;;;;;;;3.98;75.02;99529.00;6157910;23;20025;-82
2021/01/13 04:37:08;;;;;;;10.82;1.40;;;;;;;3.99;74.83;99538.50;6157412;23;20487;-81
2021/01/13 04:39:36;;;;;;;12.55;1.95;;;;;;;4.00;75.06;99541.97;6157707;23;20036;-82
2021/01/13 04:42:02;;;;;;;8.90;2.35;;;;;;;4.00;74.65;99545.41;6157404;23;20487;-82
2021/01/13 04:44:55;;;;;;;10.23;2.03;;;;;;;3.97;73.87;99542.94;6157107;23;20022;-82
2021/01/13 04:47:47;;;;;;;17.55;2.17;;;;;;;3.97;73.95;99542.94;6157700;23;20021;-82
2021/01/13 04:50:17;;;;;;;9.55;1.70;;;;;;;3.96;74.39;99538.59;6157208;23;20025;-81
2021/01/13 04:52:46;;;;;;;8.05;1.20;;;;;;;3.96;74.59;99546.41;6157443;23;20029;-81
2021/01/13 04:55:22;;;;;;;11.93;1.98;;;;;;;3.93;74.13;99546.53;6157002;23;20017;-82
2021/01/13 04:58:25;;;;;;;9.52;1.40;;;;;;;3.91;73.70;99537.91;6157757;23;20025;-82
2021/01/13 05:01:36;;;;;;;7.93;1.35;;;;;;;3.91;73.76;99530.09;6157180;23;20461;-82
2021/01/13 05:04:27;;;;;;;9.15;1.73;;;;;;;3.92;73.95;99534.38;6156542;23;20362;-81
2021/01/13 05:07:02;;;;;;;5.13;1.27;;;;;;;3.92;74.10;99539.59;6157723;23;20325;-82
2021/01/13 05:09:44;;;;;;;8.88;1.77;;;;;;;3.92;74.66;99531.78;6131500;23;20021;-81
2021/01/13 05:12:11;;;;;;;11.93;1.67;;;;;;;3.94;75.14;99532.59;6157174;23;20029;-81
2021/01/13 05:14:45;;;;;;;5.45;1.33;;;;;;;3.93;74.37;99533.50;6156992;23;20017;-82
2021/01/13 05:17:44;;;;;;;14.35;1.75;;;;;;;3.93;74.19;99530.91;6157618;23;20036;-81
2021/01/13 05:20:23;;;;;;;11.68;1.75;;;;;;;3.96;74.71;99529.94;6157347;23;20048;-81
2021/01/13 05:22:51;;;;;;;10.88;1.92;;;;;;;3.98;74.91;99529.00;6157098;23;20029;-82
2021/01/13 05:25:33;;;;;;;9.82;1.85;;;;;;;3.96;74.29;99520.38;6157123;23;20021;-81
2021/01/13 05:28:17;;;;;;;8.68;1.27;;;;;;;3.98;74.55;99533.34;6157560;23;20022;-82
2021/01/13 05:30:48;;;;;;;6.97;1.70;;;;;;;3.99;74.57;99509.00;6157210;23;20027;-82
2021/01/13 05:33:18;;;;;;;14.07;2.03;;;;;;;4.00;75.02;99508.13;6156544;23;20472;-81
2021/01/13 05:35:47;;;;;;;7.10;1.00;;;;;;;3.99;75.02;99512.47;6156946;23;20022;-81
2021/01/13 05:38:25;;;;;;;7.70;1.42;;;;;;;4.00;74.78;99505.50;6156764;23;20464;-82
2021/01/13 05:40:53;;;;;;;7.75;1.80;;;;;;;4.00;74.97;99501.13;6156787;23;20338;-81
2021/01/13 05:43:21;;;;;;;11.48;2.08;;;;;;;4.01;75.12;99505.44;6156449;23;20130;-82
2021/01/13 05:45:50;;;;;;;8.73;2.03;;;;;;;4.01;74.74;99505.44;6156536;23;20021;-81
2021/01/13 05:48:20;;;;;;;10.52;2.20;;;;;;;4.01;75.16;99521.06;6156976;23;20028;-82
2021/01/13 05:50:51;;;;;;;7.40;1.50;;;;;;;4.01;74.87;99517.63;6156624;23;20030;-81
2021/01/13 05:53:17;;;;;;;7.32;2.05;;;;;;;4.02;75.54;99514.97;6156822;23;20026;-82
2021/01/13 05:55:48;;;;;;;11.85;1.98;;;;;;;4.02;74.92;99519.31;6156816;23;20072;-82
2021/01/13 05:58:19;;;;;;;10.80;1.30;;;;;;;4.03;75.54;99515.81;6157020;23;20037;-82
2021/01/13 06:00:45;;;;;;;8.35;1.20;;;;;;;4.05;75.59;99516.63;6156622;23;20448;-81
2021/01/13 06:03:12;;;;;;;6.75;1.52;;;;;;;4.06;75.41;99512.25;6156309;23;20388;-81
2021/01/13 06:05:49;;;;;;;9.90;1.55;;;;;;;4.07;74.90;99516.56;6156822;23;20021;-81
2021/01/13 06:08:16;;;;;;;9.38;1.55;;;;;;;4.12;75.57;99512.03;6156920;23;20022;-81
2021/01/13 06:10:43;;;;;;;5.32;1.30;;;;;;;4.12;75.69;99515.47;6156822;23;20344;-82
2021/01/13 06:13:15;;;;;;;11.57;1.80;;;;;;;4.14;75.56;99531.06;6156243;23;20032;-82
2021/01/13 06:15:45;;;;;;;5.95;1.48;;;;;;;4.16;75.58;99521.47;6155840;23;20333;-82
2021/01/13 06:18:14;;;;;;;5.45;1.52;;;;;;;4.19;75.50;99516.16;6156798;23;20028;-81
2021/01/13 06:20:41;;;;;;;7.25;1.65;;;;;;;4.21;75.57;99519.53;6156364;23;20026;-81
2021/01/13 06:23:11;;;;;;;7.30;1.70;;;;;;;4.22;75.44;99529.06;6156777;23;20033;-82
2021/01/13 06:25:40;;;;;;;8.80;1.75;;;;;;;4.23;75.34;99527.31;6156271;23;20483;-82
2021/01/13 06:28:23;;;;;;;7.25;1.33;;;;;;;4.21;74.68;99540.38;6156653;23;20338;-82
2021/01/13 06:31:08;;;;;;;5.80;1.02;;;;;;;4.20;74.33;99543.03;6156229;23;20026;-82
2021/01/13 06:33:46;;;;;;;8.25;2.00;;;;;;;4.17;74.20;99544.00;6156457;23;20080;-82
2021/01/13 06:36:30;;;;;;;8.23;1.23;;;;;;;4.14;74.44;99539.75;6156375;23;20022;-82
2021/01/13 06:39:00;;;;;;;7.00;1.10;;;;;;;4.12;74.47;99546.75;6156652;23;20333;-82
2021/01/13 06:41:28;;;;;;;5.65;1.30;;;;;;;4.12;75.02;99535.50;6156322;23;20029;-82
2021/01/13 06:44:03;;;;;;;9.65;1.17;;;;;;;4.07;74.70;99533.03;6155844;23;20341;-82
2021/01/13 06:46:30;;;;;;;3.65;1.25;;;;;;;4.07;74.73;99534.81;6156207;23;20080;-80
2021/01/13 06:49:11;;;;;;;4.20;1.27;;;;;;;4.01;74.26;99539.28;6156530;23;20080;-81
2021/01/13 06:51:41;;;;;;;5.55;2.08;;;;;;;4.01;74.64;99535.84;6156530;23;20404;-80
2021/01/13 06:54:15;;;;;;;8.40;1.90;;;;;;;3.98;75.01;99529.00;6156183;23;21788;-81
2021/01/13 06:56:51;;;;;;;7.63;2.20;;;;;;;3.95;74.51;99531.69;6156322;23;20017;-81
2021/01/13 06:59:19;;;;;;;6.97;2.55;;;;;;;3.96;75.00;99524.75;6156313;23;20022;-81
2021/01/13 07:01:53;;;;;;;8.82;2.20;;;;;;;3.93;75.19;99528.31;6156122;23;20460;-81
2021/01/13 07:04:20;;;;;;;8.85;2.60;;;;;;;3.93;75.49;99523.09;6129968;23;20025;-81
2021/01/13 07:07:15;;;;;;;7.28;1.85;;;;;;;3.89;74.92;99535.34;6156136;23;20453;-81
2021/01/13 07:09:43;;;;;;;6.78;2.20;;;;;;;3.92;75.53;99529.19;6137245;23;20025;-82
2021/01/13 07:12:27;;;;;;;8.57;2.13;;;;;;;3.90;74.97;99546.63;6157561;23;20080;-81
2021/01/13 07:14:58;;;;;;;7.47;1.55;;;;;;;3.90;75.35;99544.03;6155901;23;20022;-82
2021/01/13 07:17:27;;;;;;;6.53;2.15;;;;;;;3.90;75.55;99539.66;6156313;23;20065;-82
2021/01/13 07:19:57;;;;;;;12.68;2.85;;;;;;;3.90;75.76;99536.22;6156365;23;20021;-81
2021/01/13 07:22:27;;;;;;;11.18;2.20;;;;;;;3.90;75.65;99533.59;6156140;23;20021;-81
2021/01/13 07:24:54;;;;;;;9.55;1.92;;;;;;;3.90;75.90;99531.84;6156364;23;20026;-81
2021/01/13 07:27:22;;;;;;;11.75;2.97;;;;;;;3.92;76.09;99534.38;6156221;23;20022;-81
2021/01/13 07:29:49;;;;;;;13.45;2.22;;;;;;;3.93;76.32;99538.72;6156135;23;20054;-82
2021/01/13 07:32:20;;;;;;;10.48;1.92;;;;;;;3.93;75.80;99536.13;6156060;23;20325;-81
2021/01/13 07:34:53;;;;;;;7.60;2.00;;;;;;;3.93;75.53;99535.25;6156151;23;20029;-82
2021/01/13 07:37:24;;;;;;;9.73;2.00;;;;;;;3.95;75.82;99530.84;6130387;23;20073;-84
2021/01/13 07:40:15;;;;;;;9.27;2.78;;;;;;;3.92;75.49;99521.38;6156300;23;20029;-82
2021/01/13 07:42:46;;;;;;;8.57;1.98;;;;;;;3.94;75.72;99526.53;6156087;23;20079;-82
2021/01/13 07:45:19;;;;;;;15.93;2.60;;;;;;;3.95;75.70;99528.22;6129910;23;20453;-81
2021/01/13 07:47:48;;;;;;;9.52;2.75;;;;;;;3.91;75.81;99525.75;6130417;23;20028;-81
2021/01/13 07:50:17;;;;;;;11.70;2.10;;;;;;;3.94;75.96;99529.13;6154767;23;20032;-82
2021/01/13 07:52:46;;;;;;;13.70;2.35;;;;;;;3.93;76.15;99530.03;6155984;23;20330;-82
2021/01/13 07:55:15;;;;;;;13.55;2.78;;;;;;;3.94;75.94;99521.31;6156178;23;20407;-82
2021/01/13 07:57:47;;;;;;;8.38;2.20;;;;;;;3.92;75.50;99518.75;6156162;23;20396;-82
2021/01/13 08:00:36;;;;;;;10.13;2.15;;;;;;;3.91;75.78;99527.50;6156153;23;20081;-82
2021/01/13 08:03:17;;;;;;;7.47;1.58;;;;;;;3.91;75.49;99535.31;6130191;23;20080;-82
2021/01/13 08:05:52;;;;;;;11.30;1.70;;;;;;;3.91;75.30;99532.69;6156103;23;20041;-81
2021/01/13 08:08:25;;;;;;;10.50;1.85;;;;;;;3.90;75.54;99525.78;6156109;23;20025;-82
2021/01/13 08:10:52;;;;;;;10.95;2.92;;;;;;;3.90;75.80;99520.59;6155729;23;20465;-81
2021/01/13 08:13:40;;;;;;;10.80;2.33;;;;;;;3.85;75.48;99528.53;6155827;23;20025;-82
2021/01/13 08:16:51;;;;;;;11.45;2.42;;;;;;;3.86;75.73;99532.88;6147450;23;20022;-85
2021/01/13 08:27:03;;;;;;;13.70;2.63;;;;;;;3.86;75.78;99529.41;6113995;23;20044;-86
2021/01/13 08:29:37;;;;;;;9.20;1.92;;;;;;;3.88;76.67;99528.44;6150269;23;20022;-83
2021/01/13 08:32:17;;;;;;;11.52;2.47;;;;;;;3.89;76.04;99537.13;6129928;23;20092;-85
2021/01/13 08:34:45;;;;;;;15.23;2.67;;;;;;;3.92;76.38;99529.19;6155651;23;20029;-87
2021/01/13 08:37:15;;;;;;;12.00;2.33;;;;;;;3.91;76.63;99523.13;6129562;23;20364;-86
2021/01/13 08:39:42;;;;;;;14.77;2.92;;;;;;;3.93;76.51;99525.69;6131311;23;20030;-85
2021/01/13 08:42:21;;;;;;;8.68;2.10;;;;;;;3.94;76.42;99524.78;6130672;23;20478;-86
2021/01/13 08:44:49;;;;;;;16.63;3.13;;;;;;;3.98;76.99;99529.00;6131586;23;20343;-84
2021/01/13 08:47:19;;;;;;;12.48;1.95;;;;;;;4.01;76.98;99517.63;6131837;23;20076;-86
2021/01/13 08:49:49;;;;;;;8.90;2.60;;;;;;;4.04;76.51;99522.72;6131140;23;20025;-87
2021/01/13 08:52:20;;;;;;;7.15;1.80;;;;;;;4.10;76.88;99521.66;6131549;23;20082;-85
2021/01/13 08:54:55;;;;;;;14.90;3.13;;;;;;;4.12;76.13;99531.13;6130987;23;20400;-86
2021/01/13 08:57:45;;;;;;;14.20;2.80;;;;;;;4.14;76.16;99525.84;6130484;23;20544;-86
2021/01/13 09:00:19;;;;;;;10.27;1.90;;;;;;;4.19;76.34;99520.50;6131257;23;20092;-87
2021/01/13 09:03:25;;;;;;;8.15;2.13;;;;;;;4.18;75.77;99522.25;6130301;23;20056;-87
2021/01/13 09:05:56;;;;;;;13.88;2.75;;;;;;;4.22;76.25;99525.63;6156667;23;20096;-86
2021/01/13 09:08:33;;;;;;;20.38;2.33;;;;;;;4.20;76.06;99520.44;6131256;23;20041;-86
2021/01/13 09:11:00;;;;;;;12.90;2.30;;;;;;;4.25;76.48;99525.47;6131149;23;20029;-86
2021/01/13 09:13:40;;;;;;;10.15;2.50;;;;;;;4.23;75.95;99509.06;6129990;23;20022;-85
2021/01/13 09:16:42;;;;;;;14.30;2.20;;;;;;;4.24;75.87;99514.22;6148628;23;20044;-87
2021/01/13 09:19:10;;;;;;;6.88;2.08;;;;;;;4.32;76.67;99502.66;6109881;23;20022;-86
2021/01/13 09:21:41;;;;;;;10.27;2.58;;;;;;;4.32;76.14;99513.09;6156654;23;20025;-88
2021/01/13 09:24:16;;;;;;;16.45;2.05;;;;;;;4.35;76.53;99503.44;6154823;23;20021;-88
2021/01/13 09:26:51;;;;;;;10.90;2.30;;;;;;;4.37;75.94;99503.38;6156814;23;20040;-86
2021/01/13 09:29:18;;;;;;;9.63;2.78;;;;;;;4.38;76.01;99505.06;6155323;23;20388;-88
2021/01/13 09:32:11;;;;;;;11.30;1.85;;;;;;;4.37;75.15;99503.38;6155157;23;20067;-87
2021/01/13 09:34:37;;;;;;;;;;;;;;;4.41;74.95;99504.97;6155269;23;20040;-87
2021/01/13 09:37:04;;;;;;;14.00;2.58;;;;;;;4.43;75.82;99503.16;6155303;23;19916;-87
2021/01/13 09:39:35;;;;;;;12.10;2.25;;;;;;;4.41;75.67;99505.81;6155290;23;20021;-87
2021/01/13 09:42:04;;;;;;;17.15;2.63;;;;;;;4.43;76.22;99509.22;6154495;23;20025;-88
2021/01/13 09:44:32;;;;;;;10.75;2.30;;;;;;;4.46;76.52;99513.47;6154753;23;20029;-87
2021/01/13 09:46:59;;;;;;;10.25;2.25;;;;;;;4.49;76.72;99515.13;6155369;23;20347;-88
2021/01/13 09:49:25;;;;;;;10.07;2.38;;;;;;;4.52;76.80;99517.63;6154547;23;20025;-87
2021/01/13 09:51:52;;;;;;;8.40;2.08;;;;;;;4.56;76.48;99521.78;6154818;23;20021;-87
2021/01/13 09:54:23;;;;;;;13.68;2.20;;;;;;;4.59;76.09;99515.66;6154427;23;20028;-88
2021/01/13 09:57:10;;;;;;;16.70;2.58;;;;;;;4.63;76.30;99509.41;6154854;23;20025;-87
2021/01/13 09:59:38;;;;;;;12.35;2.72;;;;;;;4.65;76.04;99512.81;6155182;23;20022;-87
2021/01/13 10:02:05;;;;;;;10.02;2.25;;;;;;;4.66;76.04;99509.28;6154291;23;20491;-88
2021/01/13 10:04:31;;;;;;;18.20;3.00;;;;;;;4.69;75.66;99519.59;6154909;23;20027;-85
2021/01/13 10:07:05;;;;;;;12.05;2.28;;;;;;;4.69;75.66;99514.41;6154475;23;20021;-87
2021/01/13 10:09:31;;;;;;;14.05;2.30;;;;;;;4.72;76.10;99505.59;6155205;23;20022;-87
2021/01/13 10:11:57;;;;;;;11.52;2.35;;;;;;;4.73;76.05;99517.72;6154808;23;20028;-85
2021/01/13 10:14:23;;;;;;;15.10;2.13;;;;;;;4.75;76.29;99513.31;6155269;23;20045;-83
2021/01/13 10:16:50;;;;;;;17.35;2.15;;;;;;;4.77;76.27;99512.34;6156849;23;20076;-85
2021/01/13 10:19:17;;;;;;;8.20;1.67;;;;;;;4.80;76.23;99514.00;6130328;23;20056;-86
2021/01/13 10:21:48;;;;;;;12.45;3.22;;;;;;;4.82;76.33;99514.78;6130310;23;20032;-85
2021/01/13 10:24:17;;;;;;;14.15;2.85;;;;;;;4.88;76.59;99511.09;6130026;23;20108;-86
2021/01/13 10:26:47;;;;;;;9.70;1.85;;;;;;;4.92;76.20;99515.28;6155906;23;20515;-85
2021/01/13 10:29:21;;;;;;;13.85;2.00;;;;;;;4.94;75.47;99513.50;6156361;23;20032;-84
2021/01/13 10:31:49;;;;;;;7.60;2.10;;;;;;;4.99;76.11;99513.31;6157514;23;20021;-85
2021/01/13 10:34:15;;;;;;;7.25;2.10;;;;;;;5.02;76.26;99516.66;6155280;23;20464;-84
2021/01/13 10:36:44;;;;;;;9.93;2.30;;;;;;;5.04;75.88;99509.63;6156806;23;20027;-85
2021/01/13 10:39:16;;;;;;;13.07;2.35;;;;;;;5.08;76.09;99515.56;6156129;23;20367;-86
2021/01/13 10:41:46;;;;;;;19.02;3.42;;;;;;;5.11;76.03;99510.22;6130824;23;20021;-85
2021/01/13 10:44:23;;;;;;;17.95;2.90;;;;;;;5.14;76.01;99501.44;6129375;23;20045;-84
2021/01/13 10:46:54;;;;;;;6.13;1.85;;;;;;;5.18;75.56;99503.00;6157782;23;20348;-84
2021/01/13 10:49:26;;;;;;;13.55;2.60;;;;;;;5.20;75.75;99503.81;6157906;23;20024;-84
2021/01/13 10:52:02;;;;;;;11.20;2.53;;;;;;;5.22;75.45;99492.41;6157286;23;20077;-84
2021/01/13 10:54:35;;;;;;;16.23;2.17;;;;;;;5.24;75.26;99497.56;6131598;23;20021;-84
2021/01/13 10:57:04;;;;;;;10.57;2.28;;;;;;;5.26;75.19;99490.53;6157439;23;20022;-83
2021/01/13 10:59:32;;;;;;;17.15;2.63;;;;;;;5.27;75.72;99481.78;6130870;23;20018;-84
2021/01/13 11:02:03;;;;;;;9.45;2.53;;;;;;;5.27;74.96;99475.72;6157674;23;20100;-84
2021/01/13 11:04:31;;;;;;;15.73;2.45;;;;;;;5.31;75.87;99485.97;6157384;23;20029;-85
2021/01/13 11:07:06;;;;;;;6.53;2.40;;;;;;;5.33;75.67;99476.31;6131769;23;20021;-83
2021/01/13 11:09:36;;;;;;;16.65;2.55;;;;;;;5.37;75.75;99478.78;6130875;23;20021;-84
2021/01/13 11:12:03;;;;;;;12.73;2.40;;;;;;;5.38;75.50;99470.06;6156517;23;20032;-83
2021/01/13 11:14:32;;;;;;;15.18;2.33;;;;;;;5.40;75.47;99465.63;6131490;23;20105;-83
2021/01/13 11:17:05;;;;;;;11.32;2.42;;;;;;;5.40;73.86;99457.78;6157773;23;20025;-83
2021/01/13 11:19:31;;;;;;;11.93;2.35;;;;;;;5.44;75.25;99459.38;6156619;23;20041;-83
2021/01/13 11:22:00;;;;;;;12.35;3.30;;;;;;;5.44;75.33;99448.94;6131557;23;20027;-84
2021/01/13 11:24:31;;;;;;;11.32;2.30;;;;;;;5.45;74.96;99445.41;6158094;23;20037;-84
2021/01/13 11:26:59;;;;;;;9.88;2.15;;;;;;;5.50;75.82;99440.88;6131257;23;20018;-84
2021/01/13 11:29:33;;;;;;;13.93;2.50;;;;;;;5.53;75.30;99445.13;6156930;23;20032;-84
2021/01/13 11:32:01;;;;;;;10.20;2.53;;;;;;;5.57;75.19;99444.06;6156678;23;20030;-86
2021/01/13 11:34:29;;;;;;;11.02;2.25;;;;;;;5.60;75.37;99436.94;6156103;23;20057;-85
2021/01/13 11:37:07;;;;;;;7.60;1.80;;;;;;;5.59;74.59;99432.66;6128945;23;20025;-87
2021/01/13 11:39:43;;;;;;;13.60;2.13;;;;;;;5.63;74.30;99429.88;6130079;23;20356;-86
2021/01/13 11:42:34;;;;;;;14.05;2.25;;;;;;;5.63;74.22;99419.44;6130257;23;20480;-86
2021/01/13 11:45:20;;;;;;;10.48;2.45;;;;;;;5.63;73.29;99433.34;6130431;23;20033;-84
2021/01/13 11:47:55;;;;;;;10.65;2.00;;;;;;;5.64;73.50;99422.00;6131108;23;20352;-86
2021/01/13 11:50:24;;;;;;;7.88;1.60;;;;;;;5.68;75.14;99417.50;6130820;23;20025;-86
2021/01/13 11:52:58;;;;;;;12.00;2.30;;;;;;;5.68;74.96;99417.50;6129999;23;20021;-84
2021/01/13 11:55:28;;;;;;;10.98;1.98;;;;;;;5.71;74.58;99409.53;6130297;23;20022;-87
2021/01/13 11:57:56;;;;;;;13.13;2.35;;;;;;;5.74;75.19;99406.78;6130137;23;20017;-85
2021/01/13 12:00:27;;;;;;;12.88;2.22;;;;;;;5.76;75.20;99407.59;6156320;23;20025;-87
2021/01/13 12:02:57;;;;;;;11.10;2.30;;;;;;;5.79;74.51;99407.44;6129811;23;20036;-87
2021/01/13 12:05:27;;;;;;;11.48;1.98;;;;;;;5.81;75.19;99397.78;6156533;23;20017;-85
2021/01/13 12:08:00;;;;;;;10.45;2.80;;;;;;;5.83;74.50;99397.72;6131177;23;20041;-87
2021/01/13 12:10:35;;;;;;;14.18;2.42;;;;;;;5.84;73.94;99381.97;6130800;23;20555;-83